sim
Sign-in with your pilot id or email,
or register
Callsign
Passwort

Schedule Details

Flight Number: DLH2159
Departure: Nuremberg Airport (EDDN) at 12:50
Arrival: Munich Airport (EDDM) at 13:30
Route: Lufthansa Passenger Schedule. Enter filed route here before submitting Pirep.

Weather Information
Getting current METAR information for EDDN 211220Z 28003KT 210V020 CAVOK 23/10 Q1016 NOSIG
Getting current METAR information for EDDM 211220Z 03005KT 330V080 CAVOK 22/12 Q1016 NOSIG

Schedule Frequency

Route Map